createdAt,value
2022-09-06T00:00:50.106Z,85.59
2022-09-06T00:03:52.378Z,87.47
2022-09-06T00:06:54.649Z,92.47
2022-09-06T00:09:57.190Z,92.80
2022-09-06T00:13:07.704Z,95.39
2022-09-06T00:16:12.580Z,94.15
2022-09-06T00:19:15.055Z,92.17
2022-09-06T00:22:17.660Z,92.10
2022-09-06T00:25:19.896Z,94.23
2022-09-06T00:28:22.121Z,89.80
2022-09-06T00:31:25.826Z,88.20
2022-09-06T00:34:28.531Z,87.92
2022-09-06T00:37:30.786Z,89.36
2022-09-06T00:40:35.665Z,88.34
2022-09-06T00:43:39.025Z,90.61
2022-09-06T00:46:45.334Z,91.77
2022-09-06T00:49:50.936Z,91.80
2022-09-06T00:52:53.471Z,90.64
2022-09-06T00:55:56.060Z,91.58
2022-09-06T00:58:58.379Z,91.55
2022-09-06T01:02:00.811Z,91.30
2022-09-06T01:05:04.533Z,89.02
2022-09-06T01:08:33.274Z,88.68
2022-09-06T01:12:10.676Z,88.59
2022-09-06T01:15:24.037Z,97.36
2022-09-06T01:18:26.373Z,100.00
2022-09-06T01:21:28.602Z,99.29
2022-09-06T01:24:42.719Z,98.75
2022-09-06T01:28:07.207Z,98.95
2022-09-06T01:31:18.468Z,98.46
2022-09-06T01:34:23.371Z,97.25
2022-09-06T01:37:25.916Z,95.16
2022-09-06T01:40:28.566Z,90.71
2022-09-06T01:43:36.569Z,84.67
2022-09-06T01:46:52.876Z,82.38
2022-09-06T01:50:03.087Z,81.34
2022-09-06T01:53:17.488Z,80.77
2022-09-06T01:56:28.994Z,76.70
2022-09-06T01:59:50.920Z,76.98
2022-09-06T02:03:14.051Z,75.26
2022-09-06T02:06:20.702Z,76.92
2022-09-06T02:09:24.238Z,74.32
2022-09-06T02:12:28.366Z,72.71
2022-09-06T02:15:33.586Z,71.12
2022-09-06T02:18:43.726Z,69.96
2022-09-06T02:21:46.664Z,68.39
2022-09-06T02:24:51.430Z,67.76
2022-09-06T02:27:54.537Z,66.80
2022-09-06T02:31:01.652Z,66.86
2022-09-06T02:34:04.516Z,65.27
2022-09-06T02:37:07.822Z,65.10
2022-09-06T02:40:11.170Z,64.61
2022-09-06T02:43:13.687Z,63.34
2022-09-06T02:46:16.205Z,64.29
2022-09-06T02:49:18.540Z,64.60
2022-09-06T02:52:20.859Z,65.91
2022-09-06T02:55:23.418Z,64.36
2022-09-06T02:58:26.312Z,64.61
2022-09-06T03:01:28.590Z,64.65
2022-09-06T03:04:31.644Z,66.98
2022-09-06T03:07:34.061Z,65.53
2022-09-06T03:10:36.305Z,67.04
2022-09-06T03:13:38.499Z,66.52
2022-09-06T03:16:40.880Z,66.08
2022-09-06T03:19:43.136Z,65.30
2022-09-06T03:22:45.891Z,66.81
2022-09-06T03:25:48.152Z,66.31
2022-09-06T03:28:50.459Z,69.67
2022-09-06T03:31:53.125Z,69.28
2022-09-06T03:34:55.367Z,68.50
2022-09-06T03:37:57.692Z,67.54
2022-09-06T03:41:00.023Z,67.16
2022-09-06T03:44:02.598Z,67.30
2022-09-06T03:47:05.208Z,67.17
2022-09-06T03:50:08.477Z,67.52
2022-09-06T03:53:10.955Z,65.35
2022-09-06T03:56:13.156Z,68.16
2022-09-06T03:59:15.478Z,67.72
2022-09-06T04:02:17.974Z,70.33
2022-09-06T04:05:20.253Z,69.92
2022-09-06T04:08:22.568Z,69.88
2022-09-06T04:11:24.942Z,68.98
2022-09-06T04:14:27.267Z,66.60
2022-09-06T04:17:29.472Z,63.25
2022-09-06T04:20:31.696Z,62.91
2022-09-06T04:23:39.152Z,61.64
2022-09-06T04:26:42.355Z,61.57
2022-09-06T04:29:44.673Z,59.59
2022-09-06T04:32:46.905Z,60.71
2022-09-06T04:35:53.928Z,59.66
2022-09-06T04:38:56.182Z,60.44
2022-09-06T04:41:58.506Z,60.62
2022-09-06T04:45:00.739Z,57.73
2022-09-06T04:48:03.517Z,59.65
2022-09-06T04:51:05.870Z,58.29
2022-09-06T04:54:08.129Z,57.17
2022-09-06T04:57:10.469Z,58.31
2022-09-06T05:00:13.148Z,57.58
2022-09-06T05:03:15.354Z,60.03
2022-09-06T05:06:23.009Z,59.61
2022-09-06T05:09:25.251Z,59.34
2022-09-06T05:12:27.508Z,60.20
2022-09-06T05:15:29.817Z,58.92
2022-09-06T05:18:32.857Z,56.80
2022-09-06T05:21:35.066Z,56.84
2022-09-06T05:24:37.306Z,57.03
2022-09-06T05:27:39.582Z,57.63
2022-09-06T05:30:42.345Z,55.10
2022-09-06T05:33:44.599Z,57.87
2022-09-06T05:36:46.844Z,55.99
2022-09-06T05:39:49.554Z,57.24
2022-09-06T05:42:51.866Z,56.89
2022-09-06T05:45:54.183Z,56.71
2022-09-06T05:49:01.149Z,57.29
2022-09-06T05:52:03.564Z,58.18
2022-09-06T05:55:07.201Z,55.13
2022-09-06T05:58:09.564Z,54.62
2022-09-06T06:01:29.852Z,54.55
2022-09-06T06:04:32.263Z,54.77
2022-09-06T06:07:34.578Z,56.21
2022-09-06T06:10:39.502Z,53.46
2022-09-06T06:13:43.227Z,54.55
2022-09-06T06:16:45.575Z,54.75
2022-09-06T06:19:47.913Z,51.42
2022-09-06T06:22:50.114Z,53.61
2022-09-06T06:25:52.350Z,52.96
2022-09-06T06:28:55.623Z,52.26
2022-09-06T06:31:57.988Z,50.74
2022-09-06T06:35:00.317Z,52.72
2022-09-06T06:38:03.139Z,53.08
2022-09-06T06:41:07.250Z,51.22
2022-09-06T06:44:09.587Z,51.93
2022-09-06T06:47:11.824Z,48.32
2022-09-06T06:50:14.116Z,48.96
2022-09-06T06:53:16.344Z,49.55
2022-09-06T06:56:27.195Z,47.26
2022-09-06T06:59:29.414Z,47.17
2022-09-06T07:02:31.814Z,48.01
2022-09-06T07:08:58.262Z,51.11
2022-09-06T07:12:00.480Z,48.25
2022-09-06T07:15:03.222Z,50.87
2022-09-06T07:18:05.964Z,50.00
2022-09-06T07:24:32.837Z,51.69
2022-09-06T07:27:50.801Z,47.10
2022-09-06T07:30:54.820Z,45.98
2022-09-06T07:33:57.034Z,45.22
2022-09-06T07:36:59.269Z,45.83
2022-09-06T07:40:01.809Z,45.55
2022-09-06T07:43:04.079Z,45.67
2022-09-06T07:46:11.701Z,44.73
2022-09-06T07:49:13.984Z,45.96
2022-09-06T07:55:38.476Z,48.91
2022-09-06T07:58:41.282Z,45.66
2022-09-06T08:01:43.601Z,44.81
2022-09-06T08:04:49.750Z,45.40
2022-09-06T08:11:16.074Z,50.26
2022-09-06T08:14:18.503Z,46.88
2022-09-06T08:17:20.817Z,45.48
2022-09-06T08:20:23.043Z,44.12
2022-09-06T08:23:25.346Z,44.87
2022-09-06T08:26:29.882Z,45.39
2022-09-06T08:29:32.116Z,47.47
2022-09-06T08:32:38.528Z,44.56
2022-09-06T08:35:40.767Z,45.88
2022-09-06T08:38:43.440Z,47.48
2022-09-06T08:42:03.746Z,46.82
2022-09-06T08:45:12.491Z,50.42
2022-09-06T08:48:14.851Z,46.63
2022-09-06T08:51:45.042Z,45.13
2022-09-06T08:54:47.211Z,46.68
2022-09-06T08:58:05.940Z,48.65
2022-09-06T09:01:25.449Z,47.72
2022-09-06T09:04:29.139Z,46.07
2022-09-06T09:07:45.318Z,46.43
2022-09-06T09:10:48.879Z,47.90
2022-09-06T09:13:57.105Z,46.36
2022-09-06T09:17:05.127Z,46.45
2022-09-06T09:20:11.170Z,45.00
2022-09-06T09:23:13.519Z,44.14
2022-09-06T09:26:15.714Z,44.52
2022-09-06T09:29:18.323Z,46.20
2022-09-06T09:32:35.231Z,48.33
2022-09-06T09:35:41.204Z,44.29
2022-09-06T09:38:45.988Z,47.53
2022-09-06T09:41:50.681Z,48.75
2022-09-06T09:44:52.947Z,49.06
2022-09-06T09:47:55.202Z,45.46
2022-09-06T09:51:23.880Z,47.36
2022-09-06T09:54:33.175Z,46.55
2022-09-06T09:57:45.518Z,44.40
2022-09-06T10:00:47.846Z,42.41
2022-09-06T10:07:16.736Z,44.63
2022-09-06T10:10:48.594Z,43.87
2022-09-06T10:13:51.966Z,43.85
2022-09-06T10:16:54.675Z,44.07
2022-09-06T10:20:00.454Z,43.24
2022-09-06T10:26:59.548Z,46.50
2022-09-06T10:30:07.691Z,42.14
2022-09-06T10:33:22.407Z,42.32
2022-09-06T10:37:17.013Z,40.60
2022-09-06T10:40:39.557Z,39.44
2022-09-06T10:44:10.194Z,40.44
2022-09-06T10:47:14.636Z,40.33
2022-09-06T10:50:17.219Z,42.98
2022-09-06T10:53:21.988Z,42.62
2022-09-06T10:56:49.793Z,42.66
2022-09-06T10:59:55.809Z,42.54
2022-09-06T11:06:35.803Z,42.89
2022-09-06T11:09:42.054Z,44.36
2022-09-06T11:12:50.308Z,42.31
2022-09-06T11:15:59.890Z,42.59
2022-09-06T11:19:09.952Z,44.06
2022-09-06T11:22:56.874Z,44.55
2022-09-06T11:26:22.874Z,44.84
2022-09-06T11:29:27.115Z,43.72
2022-09-06T11:32:37.270Z,43.50
2022-09-06T11:35:40.664Z,43.21
2022-09-06T11:38:42.994Z,43.97
2022-09-06T11:41:45.295Z,43.41
2022-09-06T11:44:51.752Z,44.84
2022-09-06T11:47:54.074Z,45.22
2022-09-06T11:50:58.942Z,45.72
2022-09-06T11:54:22.361Z,45.42
2022-09-06T11:57:26.393Z,45.84
2022-09-06T12:00:29.754Z,46.39
2022-09-06T12:04:06.684Z,45.39
2022-09-06T12:07:12.138Z,45.94
2022-09-06T12:10:29.701Z,45.98
2022-09-06T12:13:36.241Z,44.95
2022-09-06T12:17:07.230Z,46.46
2022-09-06T12:20:11.268Z,47.95
2022-09-06T12:23:35.292Z,46.48
2022-09-06T12:26:55.581Z,47.18
2022-09-06T12:30:11.843Z,44.39
2022-09-06T12:33:22.479Z,42.95
2022-09-06T12:36:31.026Z,43.71
2022-09-06T12:39:34.296Z,43.41
2022-09-06T12:42:38.243Z,46.65
2022-09-06T12:45:50.659Z,43.25
2022-09-06T12:49:08.099Z,42.37
2022-09-06T12:52:19.794Z,41.29
2022-09-06T12:55:38.604Z,40.65
2022-09-06T12:58:40.976Z,38.45
2022-09-06T13:01:51.512Z,39.13
2022-09-06T13:04:55.592Z,38.26
2022-09-06T13:08:00.926Z,39.41
2022-09-06T13:11:04.397Z,39.42
2022-09-06T13:14:17.382Z,38.89
2022-09-06T13:17:30.660Z,38.73
2022-09-06T13:20:33.147Z,40.31
2022-09-06T13:23:47.717Z,38.80
2022-09-06T13:26:50.506Z,39.14
2022-09-06T13:30:02.431Z,39.83
2022-09-06T13:33:06.236Z,39.76
2022-09-06T13:36:19.224Z,40.43
2022-09-06T13:39:35.734Z,39.00
2022-09-06T13:42:38.126Z,39.27
2022-09-06T13:45:40.717Z,41.41
2022-09-06T13:48:44.701Z,39.96
2022-09-06T13:51:50.039Z,40.83
2022-09-06T13:54:52.268Z,40.69
2022-09-06T13:57:54.504Z,43.32
2022-09-06T14:00:57.073Z,42.10
2022-09-06T14:03:59.946Z,40.57
2022-09-06T14:07:02.691Z,40.80
2022-09-06T14:10:05.338Z,39.65
2022-09-06T14:13:07.846Z,39.30
2022-09-06T14:16:10.538Z,39.82
2022-09-06T14:19:13.144Z,40.00
2022-09-06T14:22:15.398Z,40.87
2022-09-06T14:25:17.669Z,40.46
2022-09-06T14:28:20.560Z,41.53
2022-09-06T14:31:26.212Z,41.83
2022-09-06T14:34:29.706Z,40.92
2022-09-06T14:37:33.203Z,41.40
2022-09-06T14:40:37.088Z,42.40
2022-09-06T14:43:39.459Z,41.18
2022-09-06T14:46:41.768Z,41.37
2022-09-06T14:49:44.117Z,42.02
2022-09-06T14:52:46.365Z,41.00
2022-09-06T14:55:48.600Z,42.26
2022-09-06T14:58:51.036Z,43.07
2022-09-06T15:01:53.520Z,44.74
2022-09-06T15:04:55.868Z,46.25
2022-09-06T15:07:58.157Z,43.39
2022-09-06T15:11:01.160Z,43.27
2022-09-06T15:14:05.168Z,42.87
2022-09-06T15:17:08.986Z,43.38
2022-09-06T15:20:11.682Z,43.32
2022-09-06T15:23:29.137Z,44.43
2022-09-06T15:26:31.712Z,43.73
2022-09-06T15:29:33.961Z,43.93
2022-09-06T15:32:36.270Z,45.25
2022-09-06T15:35:38.596Z,43.24
2022-09-06T15:38:47.467Z,43.27
2022-09-06T15:41:50.564Z,43.61
2022-09-06T15:44:52.858Z,43.57
2022-09-06T15:47:55.848Z,43.62
2022-09-06T15:50:58.111Z,48.36
2022-09-06T15:54:00.395Z,55.31
2022-09-06T15:57:08.475Z,59.25
2022-09-06T16:00:11.838Z,64.19
2022-09-06T16:03:14.663Z,69.68
2022-09-06T16:06:28.458Z,77.19
2022-09-06T16:09:31.307Z,85.53
2022-09-06T16:12:33.582Z,90.43
2022-09-06T16:15:35.891Z,91.16
2022-09-06T16:18:40.398Z,92.98
2022-09-06T16:21:43.338Z,95.04
2022-09-06T16:24:45.593Z,95.76
2022-09-06T16:27:47.876Z,95.53
2022-09-06T16:30:50.173Z,92.96
2022-09-06T16:33:53.811Z,92.97
2022-09-06T16:36:57.059Z,91.01
2022-09-06T16:39:59.515Z,88.67
2022-09-06T16:43:03.287Z,93.37
2022-09-06T16:46:06.830Z,94.27
2022-09-06T16:49:09.209Z,99.01
2022-09-06T16:52:11.530Z,100.00
2022-09-06T16:55:14.013Z,100.00
2022-09-06T16:58:16.445Z,100.00
2022-09-06T17:01:19.461Z,100.00
2022-09-06T17:04:22.600Z,100.00
2022-09-06T17:07:24.955Z,100.00
2022-09-06T17:10:27.252Z,100.00
2022-09-06T17:13:30.547Z,100.00
2022-09-06T17:16:54.664Z,100.00
2022-09-06T17:19:57.037Z,100.00
2022-09-06T17:22:59.338Z,100.00
2022-09-06T17:26:01.678Z,100.00
2022-09-06T17:29:04.868Z,100.00
2022-09-06T17:32:10.331Z,100.00
2022-09-06T17:35:12.813Z,100.00
2022-09-06T17:38:16.433Z,100.00
2022-09-06T17:41:22.153Z,100.00
2022-09-06T17:44:27.203Z,100.00
2022-09-06T17:47:30.025Z,100.00
2022-09-06T17:50:33.472Z,100.00
2022-09-06T17:53:36.601Z,100.00
2022-09-06T17:56:39.225Z,100.00
2022-09-06T17:59:41.515Z,100.00
2022-09-06T18:02:43.852Z,100.00
2022-09-06T18:05:46.148Z,100.00
2022-09-06T18:08:50.110Z,100.00
2022-09-06T18:11:52.407Z,100.00
2022-09-06T18:14:54.843Z,100.00
2022-09-06T18:17:57.756Z,100.00
2022-09-06T18:21:00.352Z,100.00
2022-09-06T18:24:02.990Z,100.00
2022-09-06T18:27:05.321Z,100.00
2022-09-06T18:30:11.636Z,100.00
2022-09-06T18:33:16.496Z,100.00
2022-09-06T18:36:21.980Z,100.00
2022-09-06T18:39:24.478Z,100.00
2022-09-06T18:42:27.381Z,100.00
2022-09-06T18:45:33.380Z,100.00
2022-09-06T18:48:37.197Z,100.00
2022-09-06T18:51:39.757Z,100.00
2022-09-06T18:54:43.706Z,100.00
2022-09-06T18:57:46.015Z,100.00
2022-09-06T19:00:52.626Z,100.00
2022-09-06T19:03:59.106Z,100.00
2022-09-06T19:07:02.804Z,100.00
2022-09-06T19:10:05.850Z,100.00
2022-09-06T19:13:08.260Z,100.00
2022-09-06T19:16:12.446Z,100.00
2022-09-06T19:19:14.847Z,100.00
2022-09-06T19:22:17.669Z,100.00
2022-09-06T19:25:21.075Z,100.00
2022-09-06T19:28:23.390Z,100.00
2022-09-06T19:31:28.044Z,100.00
2022-09-06T19:34:30.449Z,100.00
2022-09-06T19:37:32.761Z,100.00
2022-09-06T19:40:35.042Z,100.00
2022-09-06T19:43:37.815Z,100.00
2022-09-06T19:46:45.379Z,100.00
2022-09-06T19:49:48.329Z,100.00
2022-09-06T19:52:50.721Z,100.00
2022-09-06T19:55:53.002Z,100.00
2022-09-06T19:58:57.287Z,100.00
2022-09-06T20:01:59.602Z,100.00
2022-09-06T20:05:02.041Z,100.00
2022-09-06T20:08:04.457Z,100.00
2022-09-06T20:11:08.454Z,100.00
2022-09-06T20:14:11.771Z,100.00
2022-09-06T20:17:32.696Z,100.00
2022-09-06T20:20:35.892Z,100.00
2022-09-06T20:23:38.211Z,100.00
2022-09-06T20:26:40.735Z,100.00
2022-09-06T20:29:42.988Z,100.00
2022-09-06T20:32:45.230Z,100.00
2022-09-06T20:36:04.180Z,100.00
2022-09-06T20:39:06.508Z,100.00
2022-09-06T20:42:08.761Z,100.00
2022-09-06T20:45:11.188Z,100.00
2022-09-06T20:48:13.472Z,100.00
2022-09-06T20:51:19.256Z,100.00
2022-09-06T20:54:21.778Z,100.00
2022-09-06T20:57:24.066Z,100.00
2022-09-06T21:00:26.373Z,100.00
2022-09-06T21:03:28.614Z,100.00
2022-09-06T21:06:34.457Z,100.00
2022-09-06T21:09:36.963Z,100.00
2022-09-06T21:12:39.270Z,100.00
2022-09-06T21:15:41.558Z,100.00
2022-09-06T21:18:43.909Z,100.00
2022-09-06T21:21:46.209Z,100.00
2022-09-06T21:24:48.930Z,100.00
2022-09-06T21:27:55.547Z,100.00
2022-09-06T21:31:14.402Z,100.00
2022-09-06T21:34:17.405Z,100.00
2022-09-06T21:37:19.798Z,100.00
2022-09-06T21:40:22.048Z,100.00
2022-09-06T21:43:24.417Z,100.00
2022-09-06T21:46:33.190Z,100.00
2022-09-06T21:49:35.776Z,100.00
2022-09-06T21:52:38.452Z,100.00
2022-09-06T21:55:41.257Z,100.00
2022-09-06T21:58:44.663Z,100.00
2022-09-06T22:01:47.143Z,100.00
2022-09-06T22:04:50.705Z,100.00
2022-09-06T22:07:52.973Z,100.00
2022-09-06T22:10:55.284Z,100.00
2022-09-06T22:13:59.325Z,100.00
2022-09-06T22:17:01.790Z,100.00
2022-09-06T22:20:05.143Z,100.00
2022-09-06T22:23:08.348Z,100.00
2022-09-06T22:26:12.147Z,100.00
2022-09-06T22:29:15.569Z,100.00
2022-09-06T22:32:19.412Z,100.00
2022-09-06T22:35:22.049Z,100.00
2022-09-06T22:38:24.810Z,100.00
2022-09-06T22:41:29.119Z,100.00
2022-09-06T22:44:31.424Z,100.00
2022-09-06T22:47:33.946Z,100.00
2022-09-06T22:50:36.264Z,100.00
2022-09-06T22:53:38.684Z,100.00
2022-09-06T22:56:41.143Z,100.00
2022-09-06T22:59:43.462Z,100.00
2022-09-06T23:02:45.776Z,100.00
2022-09-06T23:05:48.238Z,100.00
2022-09-06T23:08:50.991Z,100.00
2022-09-06T23:11:53.271Z,100.00
2022-09-06T23:14:55.606Z,100.00
2022-09-06T23:17:58.010Z,100.00
2022-09-06T23:21:04.938Z,100.00
2022-09-06T23:24:07.350Z,100.00
2022-09-06T23:27:09.624Z,100.00
2022-09-06T23:30:11.935Z,100.00
2022-09-06T23:33:14.184Z,100.00
2022-09-06T23:36:16.453Z,100.00
2022-09-06T23:39:18.854Z,100.00
2022-09-06T23:42:23.016Z,100.00
2022-09-06T23:45:25.339Z,100.00
2022-09-06T23:48:27.910Z,100.00
2022-09-06T23:51:30.202Z,100.00
2022-09-06T23:54:32.515Z,100.00
2022-09-06T23:57:34.835Z,100.00
